createdAt,value
2023-06-03T00:00:18.049Z,3.72
2023-06-03T00:02:44.550Z,2.90
2023-06-03T00:05:11.271Z,3.03
2023-06-03T00:07:37.864Z,4.18
2023-06-03T00:10:04.792Z,3.47
2023-06-03T00:12:31.452Z,3.30
2023-06-03T00:14:58.043Z,3.00
2023-06-03T00:17:27.751Z,3.50
2023-06-03T00:19:55.545Z,2.88
2023-06-03T00:22:25.135Z,3.83
2023-06-03T00:24:51.714Z,3.45
2023-06-03T00:27:18.236Z,3.53
2023-06-03T00:29:44.866Z,3.13
2023-06-03T00:32:11.670Z,3.10
2023-06-03T00:34:39.992Z,3.15
2023-06-03T00:37:06.649Z,2.97
2023-06-03T00:39:33.347Z,3.63
2023-06-03T00:41:59.974Z,3.60
2023-06-03T00:44:26.532Z,3.25
2023-06-03T00:46:53.430Z,4.00
2023-06-03T00:49:20.076Z,3.08
2023-06-03T00:51:47.900Z,3.40
2023-06-03T00:54:15.092Z,4.30
2023-06-03T00:56:45.657Z,3.83
2023-06-03T00:59:14.061Z,3.83
2023-06-03T01:01:43.349Z,3.80
2023-06-03T01:04:18.018Z,4.18
2023-06-03T01:06:48.829Z,3.63
2023-06-03T01:09:33.964Z,5.00
2023-06-03T01:12:03.927Z,3.85
2023-06-03T01:14:35.743Z,3.92
2023-06-03T01:17:10.864Z,3.63
2023-06-03T01:19:50.273Z,3.95
2023-06-03T01:22:17.729Z,3.35
2023-06-03T01:24:49.425Z,4.05
2023-06-03T01:27:15.845Z,4.38
2023-06-03T01:29:43.247Z,4.03
2023-06-03T01:32:14.893Z,4.45
2023-06-03T01:34:42.884Z,3.55
2023-06-03T01:37:10.168Z,3.60
2023-06-03T01:39:41.441Z,4.28
2023-06-03T01:42:08.861Z,3.28
2023-06-03T01:44:35.713Z,4.38
2023-06-03T01:47:02.569Z,4.05
2023-06-03T01:49:32.448Z,3.80
2023-06-03T01:51:59.320Z,3.88
2023-06-03T01:54:27.150Z,4.05
2023-06-03T01:56:55.017Z,4.25
2023-06-03T01:59:24.301Z,4.10
2023-06-03T02:01:54.661Z,4.45
2023-06-03T02:04:22.058Z,4.60
2023-06-03T02:06:56.618Z,3.92
2023-06-03T02:09:25.949Z,4.10
2023-06-03T02:11:53.450Z,3.63
2023-06-03T02:14:20.004Z,3.95
2023-06-03T02:16:46.668Z,3.53
2023-06-03T02:19:13.968Z,4.47
2023-06-03T02:21:40.778Z,3.78
2023-06-03T02:24:08.315Z,4.10
2023-06-03T02:26:36.704Z,3.72
2023-06-03T02:29:03.942Z,4.22
2023-06-03T02:31:30.760Z,3.45
2023-06-03T02:33:57.251Z,4.28
2023-06-03T02:36:23.796Z,3.55
2023-06-03T02:38:50.305Z,3.65
2023-06-03T02:41:17.013Z,3.83
2023-06-03T02:43:43.528Z,4.18
2023-06-03T02:46:10.346Z,3.83
2023-06-03T02:48:36.896Z,3.78
2023-06-03T02:51:03.921Z,3.72
2023-06-03T02:53:31.238Z,4.28
2023-06-03T02:55:57.822Z,3.75
2023-06-03T02:58:24.441Z,4.10
2023-06-03T03:00:51.291Z,3.63
2023-06-03T03:03:18.226Z,3.58
2023-06-03T03:05:46.099Z,3.90
2023-06-03T03:08:12.642Z,3.75
2023-06-03T03:10:39.630Z,3.20
2023-06-03T03:13:06.426Z,3.55
2023-06-03T03:15:33.388Z,3.97
2023-06-03T03:18:00.511Z,4.38
2023-06-03T03:20:30.197Z,3.75
2023-06-03T03:22:56.801Z,3.40
2023-06-03T03:25:25.529Z,4.07
2023-06-03T03:27:52.515Z,3.83
2023-06-03T03:30:20.096Z,3.97
2023-06-03T03:32:46.697Z,4.03
2023-06-03T03:35:17.248Z,3.90
2023-06-03T03:37:46.982Z,3.65
2023-06-03T03:40:19.458Z,3.67
2023-06-03T03:42:51.015Z,3.40
2023-06-03T03:45:20.782Z,3.35
2023-06-03T03:47:49.471Z,4.00
2023-06-03T03:50:36.695Z,4.03
2023-06-03T03:53:05.682Z,3.80
2023-06-03T03:55:59.996Z,3.92
2023-06-03T03:58:30.916Z,3.88
2023-06-03T04:01:02.268Z,3.80
2023-06-03T04:03:36.992Z,3.80
2023-06-03T04:06:04.175Z,3.80
2023-06-03T04:08:36.634Z,3.80
2023-06-03T04:11:03.926Z,3.70
2023-06-03T04:13:31.129Z,3.95
2023-06-03T04:16:02.076Z,3.58
2023-06-03T04:18:29.365Z,3.65
2023-06-03T04:20:57.252Z,3.35
2023-06-03T04:23:27.981Z,4.13
2023-06-03T04:25:55.141Z,3.88
2023-06-03T04:28:22.775Z,4.22
2023-06-03T04:30:49.444Z,4.28
2023-06-03T04:33:16.151Z,3.80
2023-06-03T04:35:42.960Z,4.80
2023-06-03T04:38:09.486Z,3.55
2023-06-03T04:40:38.485Z,3.60
2023-06-03T04:43:06.460Z,3.92
2023-06-03T04:45:35.778Z,3.88
2023-06-03T04:48:03.886Z,4.00
2023-06-03T04:50:36.102Z,3.33
2023-06-03T04:53:06.144Z,2.83
2023-06-03T04:55:33.079Z,3.35
2023-06-03T04:58:01.979Z,3.15
2023-06-03T05:00:29.721Z,3.00
2023-06-03T05:03:10.146Z,2.60
2023-06-03T05:05:40.883Z,2.60
2023-06-03T05:08:07.854Z,2.45
2023-06-03T05:10:35.494Z,2.17
2023-06-03T05:13:09.019Z,1.77
2023-06-03T05:15:36.735Z,2.67
2023-06-03T05:18:03.707Z,4.93
2023-06-03T05:20:32.829Z,2.45
2023-06-03T05:22:59.789Z,2.95
2023-06-03T05:25:26.300Z,2.47
2023-06-03T05:28:03.293Z,2.88
2023-06-03T05:30:32.341Z,2.28
2023-06-03T05:32:59.029Z,2.30
2023-06-03T05:35:25.592Z,1.90
2023-06-03T05:37:52.864Z,1.83
2023-06-03T05:40:19.375Z,2.50
2023-06-03T05:42:48.561Z,2.15
2023-06-03T05:45:17.190Z,2.17
2023-06-03T05:47:43.874Z,2.08
2023-06-03T05:50:10.910Z,2.85
2023-06-03T05:52:37.617Z,2.13
2023-06-03T05:55:05.309Z,2.05
2023-06-03T05:57:32.564Z,2.38
2023-06-03T05:59:59.082Z,2.28
2023-06-03T06:02:25.990Z,1.73
2023-06-03T06:04:52.911Z,1.90
2023-06-03T06:07:19.885Z,1.77
2023-06-03T06:09:46.433Z,1.63
2023-06-03T06:12:13.017Z,2.10
2023-06-03T06:14:39.633Z,1.30
2023-06-03T06:17:06.912Z,1.75
2023-06-03T06:19:36.299Z,1.70
2023-06-03T06:22:05.339Z,1.80
2023-06-03T06:24:34.701Z,1.38
2023-06-03T06:27:04.768Z,1.97
2023-06-03T06:29:31.650Z,1.85
2023-06-03T06:31:59.658Z,2.03
2023-06-03T06:34:31.136Z,2.05
2023-06-03T06:36:59.010Z,1.50
2023-06-03T06:39:35.750Z,1.63
2023-06-03T06:42:12.422Z,1.48
2023-06-03T06:44:46.447Z,1.85
2023-06-03T06:47:13.700Z,1.85
2023-06-03T06:49:40.534Z,1.60
2023-06-03T06:52:10.432Z,2.00
2023-06-03T06:54:37.671Z,1.75
2023-06-03T06:57:06.771Z,1.52
2023-06-03T06:59:34.102Z,1.65
2023-06-03T07:02:00.916Z,1.73
2023-06-03T07:04:27.499Z,1.77
2023-06-03T07:06:54.168Z,1.60
2023-06-03T07:09:21.293Z,1.75
2023-06-03T07:11:48.199Z,1.95
2023-06-03T07:14:17.935Z,1.95
2023-06-03T07:16:44.737Z,2.03
2023-06-03T07:19:11.727Z,1.85
2023-06-03T07:21:43.274Z,1.77
2023-06-03T07:24:13.098Z,1.73
2023-06-03T07:26:41.821Z,1.70
2023-06-03T07:29:09.532Z,2.03
2023-06-03T07:31:40.917Z,1.55
2023-06-03T07:34:09.406Z,1.65
2023-06-03T07:36:44.624Z,1.85
2023-06-03T07:39:16.042Z,1.65
2023-06-03T07:41:51.946Z,1.50
2023-06-03T07:44:50.878Z,1.30
2023-06-03T07:47:18.062Z,1.40
2023-06-03T07:49:45.087Z,1.63
2023-06-03T07:52:14.765Z,1.35
2023-06-03T07:54:41.318Z,1.90
2023-06-03T07:57:08.390Z,1.30
2023-06-03T07:59:35.277Z,1.58
2023-06-03T08:02:01.985Z,1.40
2023-06-03T08:04:33.946Z,1.60
2023-06-03T08:07:04.044Z,1.58
2023-06-03T08:09:33.462Z,1.38
2023-06-03T08:12:01.592Z,1.15
2023-06-03T08:14:30.524Z,1.65
2023-06-03T08:16:57.981Z,1.30
2023-06-03T08:19:24.483Z,1.45
2023-06-03T08:21:52.202Z,1.17
2023-06-03T08:24:18.760Z,1.02
2023-06-03T08:26:46.325Z,1.00
2023-06-03T08:29:13.760Z,1.10
2023-06-03T08:31:40.248Z,1.25
2023-06-03T08:34:06.879Z,0.73
2023-06-03T08:36:33.639Z,1.55
2023-06-03T08:39:00.306Z,1.30
2023-06-03T08:41:27.495Z,0.82
2023-06-03T08:43:58.569Z,1.20
2023-06-03T08:46:31.845Z,0.95
2023-06-03T08:49:05.478Z,1.10
2023-06-03T08:51:39.014Z,0.93
2023-06-03T08:54:18.900Z,0.95
2023-06-03T08:56:46.932Z,1.10
2023-06-03T08:59:16.420Z,1.00
2023-06-03T09:01:43.684Z,1.00
2023-06-03T09:04:13.324Z,1.15
2023-06-03T09:06:44.248Z,0.93
2023-06-03T09:09:11.400Z,1.23
2023-06-03T09:11:39.160Z,1.23
2023-06-03T09:14:06.184Z,1.15
2023-06-03T09:16:36.784Z,0.90
2023-06-03T09:19:04.393Z,0.80
2023-06-03T09:21:31.044Z,0.80
2023-06-03T09:23:57.698Z,0.90
2023-06-03T09:26:24.269Z,1.00
2023-06-03T09:28:50.823Z,0.98
2023-06-03T09:31:17.831Z,0.98
2023-06-03T09:33:44.485Z,0.90
2023-06-03T09:36:11.605Z,0.80
2023-06-03T09:38:47.095Z,0.80
2023-06-03T09:41:14.864Z,1.25
2023-06-03T09:43:41.372Z,1.30
2023-06-03T09:46:11.093Z,2.13
2023-06-03T09:48:37.818Z,0.90
2023-06-03T09:51:07.825Z,0.90
2023-06-03T09:53:34.391Z,0.90
2023-06-03T09:56:20.960Z,0.75
2023-06-03T09:58:47.397Z,1.05
2023-06-03T10:01:14.021Z,1.00
2023-06-03T10:03:57.502Z,0.90
2023-06-03T10:06:23.980Z,1.20
2023-06-03T10:08:50.642Z,0.77
2023-06-03T10:11:17.450Z,1.08
2023-06-03T10:13:45.491Z,1.25
2023-06-03T10:16:12.605Z,0.88
2023-06-03T10:18:40.398Z,1.05
2023-06-03T10:21:08.262Z,1.30
2023-06-03T10:23:37.842Z,0.77
2023-06-03T10:26:08.096Z,0.95
2023-06-03T10:28:35.167Z,0.90
2023-06-03T10:31:02.090Z,1.77
2023-06-03T10:33:29.399Z,1.10
2023-06-03T10:35:57.355Z,0.75
2023-06-03T10:38:24.363Z,0.70
2023-06-03T10:40:51.047Z,0.65
2023-06-03T10:43:18.938Z,0.70
2023-06-03T10:45:45.433Z,0.77
2023-06-03T10:48:13.706Z,0.50
2023-06-03T10:50:52.137Z,1.17
2023-06-03T10:53:19.843Z,0.80
2023-06-03T10:56:05.293Z,0.90
2023-06-03T10:58:31.878Z,0.55
2023-06-03T11:01:08.212Z,0.73
2023-06-03T11:03:35.973Z,0.85
2023-06-03T11:06:18.230Z,0.70
2023-06-03T11:08:59.297Z,0.57
2023-06-03T11:11:45.426Z,0.88
2023-06-03T11:14:11.991Z,1.05
2023-06-03T11:16:57.212Z,0.75
2023-06-03T11:19:30.437Z,0.85
2023-06-03T11:21:57.226Z,0.80
2023-06-03T11:24:39.154Z,1.27
2023-06-03T11:27:14.760Z,1.25
2023-06-03T11:29:47.660Z,1.60
2023-06-03T11:32:15.153Z,0.60
2023-06-03T11:34:42.102Z,0.60
2023-06-03T11:37:09.036Z,0.50
2023-06-03T11:39:54.579Z,0.90
2023-06-03T11:42:20.987Z,0.68
2023-06-03T11:44:47.546Z,0.70
2023-06-03T11:47:14.030Z,0.40
2023-06-03T11:49:40.922Z,0.60
2023-06-03T11:52:09.180Z,0.68
2023-06-03T11:54:37.266Z,0.60
2023-06-03T11:57:04.742Z,1.15
2023-06-03T11:59:43.273Z,1.25
2023-06-03T12:02:11.109Z,0.63
2023-06-03T12:04:38.223Z,0.80
2023-06-03T12:07:16.334Z,0.60
2023-06-03T12:09:43.288Z,0.47
2023-06-03T12:12:10.931Z,0.40
2023-06-03T12:14:39.839Z,0.60
2023-06-03T12:17:11.647Z,0.55
2023-06-03T12:19:45.667Z,0.65
2023-06-03T12:22:12.512Z,0.60
2023-06-03T12:24:43.687Z,0.60
2023-06-03T12:27:14.967Z,0.57
2023-06-03T12:32:08.696Z,0.57
2023-06-03T12:34:36.073Z,0.57
2023-06-03T12:37:03.966Z,0.90
2023-06-03T12:39:49.502Z,0.50
2023-06-03T12:42:20.666Z,0.50
2023-06-03T12:44:56.176Z,1.15
2023-06-03T12:47:22.702Z,0.40
2023-06-03T12:50:04.638Z,0.40
2023-06-03T12:52:35.584Z,0.65
2023-06-03T12:55:02.968Z,0.38
2023-06-03T12:57:29.836Z,0.65
2023-06-03T12:59:59.958Z,0.70
2023-06-03T13:02:26.519Z,0.47
2023-06-03T13:04:53.565Z,0.68
2023-06-03T13:07:20.347Z,0.50
2023-06-03T13:09:47.286Z,0.40
2023-06-03T13:12:13.776Z,0.43
2023-06-03T13:14:40.408Z,0.55
2023-06-03T13:17:07.882Z,0.40
2023-06-03T13:19:36.388Z,0.50
2023-06-03T13:22:02.900Z,0.50
2023-06-03T13:24:29.572Z,0.57
2023-06-03T13:26:55.991Z,0.50
2023-06-03T13:29:22.763Z,0.55
2023-06-03T13:31:49.191Z,0.30
2023-06-03T13:34:15.799Z,0.38
2023-06-03T13:36:42.343Z,0.70
2023-06-03T13:39:09.142Z,0.75
2023-06-03T13:41:35.845Z,0.50
2023-06-03T13:44:02.418Z,0.35
2023-06-03T13:46:28.933Z,0.40
2023-06-03T13:48:55.467Z,0.40
2023-06-03T13:51:22.375Z,0.50
2023-06-03T13:53:49.018Z,0.60
2023-06-03T13:56:15.513Z,0.55
2023-06-03T13:58:42.020Z,0.50
2023-06-03T14:01:08.738Z,0.50
2023-06-03T14:03:35.199Z,0.38
2023-06-03T14:06:01.767Z,0.45
2023-06-03T14:08:29.820Z,0.40
2023-06-03T14:10:56.546Z,0.60
2023-06-03T14:13:22.986Z,0.50
2023-06-03T14:15:49.433Z,0.60
2023-06-03T14:18:15.870Z,0.80
2023-06-03T14:20:42.359Z,0.43
2023-06-03T14:23:08.962Z,0.40
2023-06-03T14:25:35.722Z,0.40
2023-06-03T14:28:04.427Z,0.40
2023-06-03T14:30:55.864Z,0.60
2023-06-03T14:33:18.106Z,0.52
2023-06-03T14:35:44.712Z,0.70
2023-06-03T14:38:11.180Z,0.43
2023-06-03T14:40:37.845Z,0.47
2023-06-03T14:43:05.018Z,0.75
2023-06-03T14:45:31.508Z,0.70
2023-06-03T14:47:58.334Z,0.55
2023-06-03T14:50:25.145Z,0.57
2023-06-03T14:52:51.649Z,0.75
2023-06-03T14:55:18.129Z,0.50
2023-06-03T14:57:44.914Z,0.50
2023-06-03T15:00:11.621Z,0.40
2023-06-03T15:02:38.142Z,0.40
2023-06-03T15:05:05.145Z,0.38
2023-06-03T15:07:31.886Z,0.60
2023-06-03T15:09:58.416Z,0.40
2023-06-03T15:12:25.361Z,0.63
2023-06-03T15:14:51.761Z,0.40
2023-06-03T15:17:19.232Z,0.40
2023-06-03T15:19:46.004Z,0.43
2023-06-03T15:22:12.566Z,0.68
2023-06-03T15:24:39.095Z,0.57
2023-06-03T15:27:06.855Z,0.50
2023-06-03T15:29:33.391Z,0.50
2023-06-03T15:31:59.947Z,0.50
2023-06-03T15:34:27.060Z,0.40
2023-06-03T15:36:53.648Z,0.63
2023-06-03T15:39:21.075Z,0.60
2023-06-03T15:41:47.814Z,0.82
2023-06-03T15:44:14.994Z,0.40
2023-06-03T15:46:41.769Z,0.63
2023-06-03T15:49:10.835Z,0.57
2023-06-03T15:51:37.671Z,0.60
2023-06-03T15:54:10.067Z,0.38
2023-06-03T15:56:36.791Z,0.45
2023-06-03T15:59:03.314Z,0.57
2023-06-03T16:01:29.884Z,0.60
2023-06-03T16:03:56.583Z,0.50
2023-06-03T16:06:23.122Z,0.70
2023-06-03T16:08:49.731Z,0.55
2023-06-03T16:11:16.665Z,0.55
2023-06-03T16:13:43.593Z,0.32
2023-06-03T16:16:10.126Z,1.42
2023-06-03T16:18:36.939Z,0.85
2023-06-03T16:21:03.592Z,0.63
2023-06-03T16:23:30.219Z,0.60
2023-06-03T16:25:57.005Z,1.60
2023-06-03T16:28:23.703Z,1.15
2023-06-03T16:30:50.407Z,1.42
2023-06-03T16:33:16.930Z,0.90
2023-06-03T16:35:43.331Z,2.60
2023-06-03T16:38:10.089Z,1.08
2023-06-03T16:40:36.613Z,0.70
2023-06-03T16:43:03.164Z,2.47
2023-06-03T16:45:29.856Z,2.10
2023-06-03T16:47:56.777Z,1.63
2023-06-03T16:50:23.451Z,1.30
2023-06-03T16:52:50.775Z,0.68
2023-06-03T16:55:17.360Z,1.67
2023-06-03T16:57:43.972Z,1.10
2023-06-03T17:00:11.088Z,0.57
2023-06-03T17:02:37.737Z,1.10
2023-06-03T17:05:07.394Z,0.70
2023-06-03T17:07:34.185Z,1.10
2023-06-03T17:10:00.743Z,0.52
2023-06-03T17:12:27.260Z,0.77
2023-06-03T17:14:53.993Z,0.63
2023-06-03T17:17:20.576Z,0.88
2023-06-03T17:19:47.074Z,0.90
2023-06-03T17:22:13.571Z,0.80
2023-06-03T17:24:40.101Z,0.90
2023-06-03T17:27:06.785Z,0.55
2023-06-03T17:29:33.346Z,0.85
2023-06-03T17:32:00.562Z,0.73
2023-06-03T17:34:27.235Z,0.70
2023-06-03T17:36:53.688Z,0.70
2023-06-03T17:39:20.181Z,1.40
2023-06-03T17:41:47.395Z,0.88
2023-06-03T17:44:14.165Z,0.80
2023-06-03T17:46:40.850Z,1.30
2023-06-03T17:49:07.681Z,0.80
2023-06-03T17:51:34.145Z,1.00
2023-06-03T17:54:00.872Z,0.93
2023-06-03T17:56:27.324Z,1.00
2023-06-03T17:58:54.000Z,0.82
2023-06-03T18:01:20.779Z,0.95
2023-06-03T18:03:47.235Z,1.20
2023-06-03T18:06:13.790Z,0.70
2023-06-03T18:08:40.368Z,0.68
2023-06-03T18:11:06.970Z,0.73
2023-06-03T18:13:33.669Z,0.85
2023-06-03T18:16:00.182Z,0.88
2023-06-03T18:18:26.806Z,0.88
2023-06-03T18:20:56.198Z,0.60
2023-06-03T18:23:22.763Z,0.80
2023-06-03T18:25:49.421Z,1.02
2023-06-03T18:28:16.205Z,0.90
2023-06-03T18:30:42.696Z,0.77
2023-06-03T18:33:09.295Z,1.50
2023-06-03T18:35:35.853Z,0.95
2023-06-03T18:38:03.838Z,1.23
2023-06-03T18:40:30.436Z,1.00
2023-06-03T18:42:58.264Z,1.33
2023-06-03T18:45:24.796Z,1.40
2023-06-03T18:47:51.303Z,1.60
2023-06-03T18:50:17.755Z,1.30
2023-06-03T18:52:44.635Z,1.52
2023-06-03T18:55:11.347Z,1.02
2023-06-03T18:57:37.882Z,1.00
2023-06-03T19:00:05.648Z,0.90
2023-06-03T19:02:32.215Z,1.20
2023-06-03T19:04:58.697Z,1.38
2023-06-03T19:07:25.275Z,1.20
2023-06-03T19:09:51.726Z,0.90
2023-06-03T19:12:18.261Z,1.17
2023-06-03T19:14:44.845Z,1.15
2023-06-03T19:17:12.693Z,1.00
2023-06-03T19:19:39.685Z,1.13
2023-06-03T19:22:06.508Z,1.15
2023-06-03T19:24:33.122Z,1.40
2023-06-03T19:26:59.676Z,0.57
2023-06-03T19:29:26.155Z,0.98
2023-06-03T19:31:52.812Z,0.82
2023-06-03T19:34:19.386Z,0.80
2023-06-03T19:36:45.841Z,1.25
2023-06-03T19:39:12.304Z,1.33
2023-06-03T19:41:38.804Z,0.95
2023-06-03T19:44:05.323Z,0.63
2023-06-03T19:46:33.934Z,1.10
2023-06-03T19:49:01.747Z,1.02
2023-06-03T19:51:30.317Z,0.85
2023-06-03T19:53:58.215Z,1.25
2023-06-03T19:56:24.708Z,1.00
2023-06-03T19:58:56.580Z,0.93
2023-06-03T20:01:29.186Z,1.35
2023-06-03T20:03:55.859Z,1.33
2023-06-03T20:06:22.384Z,1.08
2023-06-03T20:08:48.902Z,5.07
2023-06-03T20:11:18.273Z,1.83
2023-06-03T20:13:44.884Z,2.00
2023-06-03T20:16:16.180Z,1.48
2023-06-03T20:18:43.295Z,1.65
2023-06-03T20:21:10.319Z,1.45
2023-06-03T20:23:36.841Z,1.42
2023-06-03T20:26:04.291Z,1.33
2023-06-03T20:28:31.699Z,1.08
2023-06-03T20:30:58.667Z,0.85
2023-06-03T20:33:25.393Z,1.08
2023-06-03T20:35:57.278Z,1.10
2023-06-03T20:38:28.078Z,0.88
2023-06-03T20:40:54.557Z,1.00
2023-06-03T20:43:28.682Z,1.20
2023-06-03T20:45:57.262Z,0.98
2023-06-03T20:48:28.897Z,1.98
2023-06-03T20:50:55.532Z,1.25
2023-06-03T20:53:25.709Z,0.95
2023-06-03T20:55:52.483Z,1.00
2023-06-03T20:58:26.341Z,1.08
2023-06-03T21:00:52.851Z,0.82
2023-06-03T21:03:21.190Z,1.02
2023-06-03T21:05:47.813Z,1.00
2023-06-03T21:08:16.223Z,1.83
2023-06-03T21:10:43.448Z,1.23
2023-06-03T21:13:10.016Z,1.10
2023-06-03T21:15:42.162Z,1.08
2023-06-03T21:18:10.745Z,1.20
2023-06-03T21:20:40.376Z,1.17
2023-06-03T21:23:07.093Z,1.17
2023-06-03T21:25:33.544Z,1.30
2023-06-03T21:28:01.289Z,2.00
2023-06-03T21:30:30.285Z,1.00
2023-06-03T21:33:01.482Z,1.00
2023-06-03T21:35:29.737Z,1.60
2023-06-03T21:37:57.824Z,0.80
2023-06-03T21:40:27.610Z,1.08
2023-06-03T21:42:54.887Z,1.02
2023-06-03T21:45:21.677Z,0.90
2023-06-03T21:47:48.318Z,1.00
2023-06-03T21:50:19.140Z,1.35
2023-06-03T21:52:47.385Z,1.70
2023-06-03T21:55:14.276Z,1.40
2023-06-03T21:57:40.760Z,1.55
2023-06-03T22:00:14.445Z,1.00
2023-06-03T22:02:44.420Z,1.20
2023-06-03T22:05:11.092Z,0.90
2023-06-03T22:07:40.165Z,1.27
2023-06-03T22:10:06.900Z,1.73
2023-06-03T22:12:33.296Z,1.42
2023-06-03T22:14:59.825Z,1.15
2023-06-03T22:17:26.427Z,1.23
2023-06-03T22:19:52.893Z,1.00
2023-06-03T22:22:19.433Z,1.20
2023-06-03T22:24:45.964Z,1.33
2023-06-03T22:27:13.664Z,1.10
2023-06-03T22:29:40.087Z,1.75
2023-06-03T22:32:07.475Z,1.48
2023-06-03T22:34:34.062Z,1.15
2023-06-03T22:37:00.609Z,1.35
2023-06-03T22:39:27.477Z,1.45
2023-06-03T22:41:54.022Z,1.08
2023-06-03T22:44:20.994Z,1.10
2023-06-03T22:46:48.092Z,1.02
2023-06-03T22:49:14.748Z,1.38
2023-06-03T22:51:41.289Z,1.55
2023-06-03T22:54:08.162Z,1.27
2023-06-03T22:56:34.760Z,1.33
2023-06-03T22:59:01.552Z,1.20
2023-06-03T23:01:28.032Z,1.40
2023-06-03T23:03:54.878Z,1.20
2023-06-03T23:06:21.358Z,0.88
2023-06-03T23:08:48.023Z,1.67
2023-06-03T23:11:14.926Z,1.45
2023-06-03T23:13:43.529Z,1.20
2023-06-03T23:16:10.153Z,1.00
2023-06-03T23:18:36.858Z,1.35
2023-06-03T23:21:03.614Z,1.45
2023-06-03T23:23:30.280Z,1.70
2023-06-03T23:25:57.044Z,1.85
2023-06-03T23:28:23.560Z,1.38
2023-06-03T23:30:50.306Z,1.55
2023-06-03T23:33:17.411Z,1.50
2023-06-03T23:35:44.052Z,1.20
2023-06-03T23:38:11.515Z,1.50
2023-06-03T23:40:38.777Z,1.52
2023-06-03T23:43:05.542Z,1.35
2023-06-03T23:45:32.133Z,1.48
2023-06-03T23:47:58.710Z,1.30
2023-06-03T23:50:25.450Z,2.08
2023-06-03T23:52:52.063Z,1.63
2023-06-03T23:55:18.800Z,1.40
2023-06-03T23:57:51.420Z,1.40
